Hauptseite
METAR-TAF:

METAR-TAF

Flughäfen :

Flugplatz Schwäbisch Hall-Hessental (Adolf Würth Airport)

Schwäbisch Hall, Deutschland

Breite: 49-07-06N, Länge: 9-47-02E, Höhe: 398 m

Beobachtung

Neuester Wetterbericht von vor 27 Minuten, um 23:50 UTC
Wind 1 kt aus unterschiedlichen Richtungen
Temperatur 1°C
Luftfeuchtigkeit 86%
Luftdruck 1020 hPa
Sichtweite 10 km oder mehr

METAR: EDTY 072350Z AUTO VRB01KT 9999 // NCD 01/M01 Q1020

Zeit: 02:17 (00:17 UTC)

Prognose

Neuester Wetterbericht von vor 7 Stunden und 17 Minuten, um 17:00 UTC
Gültige Prognose vom 07 um 18 UTC bis 08 um 03 UTC
Wind 7 kt aus West/Nordwest
Sichtweite 10 km oder mehr
keine Wolken unter 1500 m und keine Kumulonimbus oder Gewitterwolken
Übergehend zu
vom 07 um 19 UTC bis 07 um 21 UTC
Wind 3 kt aus unterschiedlichen Richtungen

TAF: EDTY 071700Z 0718/0803 29007KT CAVOK BECMG 0719/0721 VRB03KT

Wetterbeobachtungen und Prognosen von mehr als 4000 Flughäfen (METAR und TAF Bericht).

Die verfügbaren Stationen werden durch gelbe und rote Markierungen auf der Karte dargestellt.

Führen Sie die Maus auf sie, um den Namen der Station zu sehen.

Darauf klicken, um die Beobachtung von Wetterbeobachtungen und Prognosen zu sehen.

Um die Karte zu ändern : klicken Sie auf den grünen Tasten mit einem schwarzen Kreuz Zum Vergrößern, auf den grünen Button mit einem Gedankenstrich zu verkleinern, oder auf die grünen Pfeile für benachbarte Karten.


METAR-TAF: